WetterOnline ( http://www.wetteronline.de )

Wetter aktuell Ostallgäu

Aktuelles Wetter: Kempten (705m)

6-stündlich | Neueste Meldungen
Ortszeit Temperatur Wetter
Di, 23.01. 13:00 4.6° C bedeckt
Di, 23.01. 7:00 3.0° C Regen
Di, 23.01. 1:00 5.1° C bewölkt
Mo, 22.01. 19:00 6.6° C leichter Regen
Mo, 22.01. 13:00 6.1° C leichter Regen
Mo, 22.01. 7:00 3.7° C Sprühregen
Mo, 22.01. 1:00 -1.1° C leichter Schneefall
So, 21.01. 19:00 -1.1° C bewölkt
Ortszeit Temperatur Wetter
Di, 23.01. 16:30 4.7° C bedeckt
Di, 23.01. 16:20 4.7° C bedeckt
Di, 23.01. 16:10 4.8° C bedeckt
Di, 23.01. 16:00 5.0° C bedeckt
Di, 23.01. 15:50 5.0° C bedeckt
Di, 23.01. 15:40 5.0° C bewölkt
Di, 23.01. 15:30 4.9° C bedeckt
Di, 23.01. 15:00 5.6° C bewölkt
Di, 23.01. 14:30 5.6° C bewölkt
Di, 23.01. 14:00 5.2° C bedeckt
Di, 23.01. 13:30 5.1° C wolkig
Ortszeit Relative Feuchte Sichtweite
Di, 23.01. 13:00 78% 45 km
Di, 23.01. 7:00 85% 29 km
Di, 23.01. 1:00 88% 45 km
Mo, 22.01. 19:00 88% 8 km
Mo, 22.01. 13:00 87% 25 km
Mo, 22.01. 7:00 93% 3.3 km
Mo, 22.01. 1:00 92% 2.4 km
So, 21.01. 19:00 87% 25 km
Ortszeit Relative Feuchte Sichtweite
Di, 23.01. 16:30 77% 35 km
Di, 23.01. 16:20 77% -
Di, 23.01. 16:10 77% -
Di, 23.01. 16:00 77% 40 km
Di, 23.01. 15:50 77% -
Di, 23.01. 15:40 76% -
Di, 23.01. 15:30 75% 45 km
Di, 23.01. 15:00 73% 45 km
Di, 23.01. 14:30 75% 35 km
Di, 23.01. 14:00 77% 35 km
Di, 23.01. 13:30 77% 40 km
Ortszeit Niederschlagsmenge Niederschlagsart
Di, 23.01. 13:00 0.1 l/m2 in 6 Std. Regen
Di, 23.01. 7:00 10 l/m2 in 12 Std. Regen
Di, 23.01. 1:00 7 l/m2 in 6 Std. Regen
Mo, 22.01. 19:00 13 l/m2 in 12 Std. Regen
Mo, 22.01. 13:00 4 l/m2 in 6 Std. Regen
Mo, 22.01. 7:00 12 l/m2 in 12 Std. Schnee, Regen
Mo, 22.01. 1:00 0.3 l/m2 in 6 Std. Schnee
So, 21.01. 19:00 0.8 l/m2 in 12 Std. Schnee, Sprühregen
Ortszeit Niederschlagsmenge Niederschlagsart
Di, 23.01. 16:30 0.0 l/m2 in 1 Std. -
Di, 23.01. 16:20 keine Meldung -
Di, 23.01. 16:10 keine Meldung -
Di, 23.01. 16:00 0.0 l/m2 in 1 Std. Regen
Di, 23.01. 15:50 keine Meldung -
Di, 23.01. 15:40 keine Meldung -
Di, 23.01. 15:30 0.0 l/m2 in 1 Std. -
Di, 23.01. 15:00 0.1 l/m2 in 1 Std. Regen
Di, 23.01. 14:30 0.1 l/m2 in 1 Std. Schneeregen
Di, 23.01. 14:00 0.1 l/m2 in 1 Std. Sprühregen
Di, 23.01. 13:30 0.0 l/m2 in 1 Std. -
Ortszeit Stärke Spitze Richtung
km/h Bft. km/h Grad Sektor
Di, 23.01. 13:00 11 2 22 200° S
Di, 23.01. 7:00 7 2 25 240° SW
Di, 23.01. 1:00 9 2 41 220° SW
Mo, 22.01. 19:00 17 3 33 240° SW
Mo, 22.01. 13:00 13 3 44 220° SW
Mo, 22.01. 7:00 18 3 36 210° SW
Mo, 22.01. 1:00 6 1 19 130° SO
So, 21.01. 19:00 0 0 25 - -
Ortszeit Stärke Spitze Richtung
km/h Bft. km/h Grad Sektor
Di, 23.01. 16:30 11 2 18 200° S
Di, 23.01. 16:20 11 2 - 200° S
Di, 23.01. 16:10 9 2 - 220° SW
Di, 23.01. 16:00 9 2 22 230° SW
Di, 23.01. 15:50 9 2 - 230° SW
Di, 23.01. 15:40 7 2 - 210° SW
Di, 23.01. 15:30 13 3 22 230° SW
Di, 23.01. 15:00 11 2 22 260° W
Di, 23.01. 14:30 11 2 22 220° SW
Di, 23.01. 14:00 11 2 22 230° SW
Di, 23.01. 13:30 9 2 17 200° S
Ortszeit Untergrenze Bedeckung Gattung
total tief tief mittel hoch
Di, 23.01. 13:00 1350 m 8/8 8/8 - - -
Di, 23.01. 7:00 510 m 7/8 7/8 - - -
Di, 23.01. 1:00 690 m 7/8 7/8 - - -
Mo, 22.01. 19:00 660 m 7/8 7/8 - - -
Mo, 22.01. 13:00 570 m 8/8 7/8 - - -
Mo, 22.01. 7:00 1290 m 8/8 8/8 - - -
Mo, 22.01. 1:00 - 8/8 - - - -
So, 21.01. 19:00 1140 m 7/8 7/8 - - -
Ortszeit Bedeckungsgrad in Achtel und Wolkenuntergrenze
Di, 23.01. 16:30 8(540m)
Di, 23.01. 16:20 8(540m)
Di, 23.01. 16:10 7(540m) 8(840m)
Di, 23.01. 16:00 7(510m) 8(810m)
Di, 23.01. 15:50 7(510m) 8(810m)
Di, 23.01. 15:40 7(540m) 7(900m)
Di, 23.01. 15:30 4(600m) 8(840m) 8(900m)
Di, 23.01. 15:00 3(600m) 6(750m) 7(1350m)
Di, 23.01. 14:30 4(510m) 7(870m) 7(1080m)
Di, 23.01. 14:00 3(450m) 7(720m) 8(960m)
Di, 23.01. 13:30 1(450m) 4(780m) 6(1470m)
Ortszeit Luftdruck NN (hPa) Tendenz (hPa in 3 Std.)
Di, 23.01. 13:00 1029 + 0,3
Di, 23.01. 7:00 1026 + 2,4
Di, 23.01. 1:00 1021 + 3,3
Mo, 22.01. 19:00 1012 + 1,7
Mo, 22.01. 13:00 1012 + 0,2
Mo, 22.01. 7:00 1012 - 0,8
Mo, 22.01. 1:00 1017 - 3,2
So, 21.01. 19:00 1021 + 0,5
Ortszeit Luftdruck NN (hPa) Tendenz (hPa in 3 Std.)
Di, 23.01. 16:30 1028 - 0,1
Di, 23.01. 16:20 1028 keine Meldung
Di, 23.01. 16:10 1028 keine Meldung
Di, 23.01. 16:00 1028 - 0,4
Di, 23.01. 15:50 1028 keine Meldung
Di, 23.01. 15:40 1028 keine Meldung
Di, 23.01. 15:30 1028 - 0,5
Di, 23.01. 15:00 1028 - 0,6
Di, 23.01. 14:30 1028 - 0,6
Di, 23.01. 14:00 1028 - 0,5
Di, 23.01. 13:30 1028 - 0,2
Ortszeit Schneehöhe (cm)
Di, 23.01. 13:00 0
Di, 23.01. 7:00 0
Di, 23.01. 1:00 0
Mo, 22.01. 19:00 0
Mo, 22.01. 13:00 0
Mo, 22.01. 7:00 2
Mo, 22.01. 1:00 2
So, 21.01. 19:00 0
Ortszeit Schneehöhe (cm)
Di, 23.01. 16:30 0
Di, 23.01. 16:20 0
Di, 23.01. 16:10 0
Di, 23.01. 16:00 0
Di, 23.01. 15:50 0
Di, 23.01. 15:40 0
Di, 23.01. 15:30 0
Di, 23.01. 15:00 0
Di, 23.01. 14:30 0
Di, 23.01. 14:00 0
Di, 23.01. 13:30 0
Link zu dieser Seite / Seite empfehlen

Das Wetter in ...